createdAt,value
2017-12-22T00:02:00.024Z,4.20
2017-12-22T00:04:27.525Z,4.20
2017-12-22T00:06:55.888Z,4.20
2017-12-22T00:09:23.379Z,4.20
2017-12-22T00:11:50.874Z,4.20
2017-12-22T00:14:18.382Z,4.20
2017-12-22T00:16:46.692Z,4.30
2017-12-22T00:19:14.195Z,4.30
2017-12-22T00:21:41.691Z,4.30
2017-12-22T00:24:09.208Z,4.20
2017-12-22T00:26:36.894Z,4.20
2017-12-22T00:29:05.329Z,4.20
2017-12-22T00:31:32.819Z,4.20
2017-12-22T00:34:00.354Z,4.30
2017-12-22T00:36:27.907Z,4.20
2017-12-22T00:38:55.399Z,4.30
2017-12-22T00:41:23.660Z,4.30
2017-12-22T00:43:51.339Z,4.30
2017-12-22T00:46:19.603Z,4.30
2017-12-22T00:48:47.105Z,4.30
2017-12-22T00:51:14.607Z,4.30
2017-12-22T00:53:42.120Z,4.30
2017-12-22T00:56:09.619Z,4.30
2017-12-22T00:58:37.111Z,4.30
2017-12-22T01:01:05.387Z,4.40
2017-12-22T01:03:33.643Z,4.40
2017-12-22T01:06:01.139Z,4.40
2017-12-22T01:08:28.647Z,4.40
2017-12-22T01:10:56.160Z,4.50
2017-12-22T01:13:23.658Z,4.50
2017-12-22T01:15:57.059Z,4.40
2017-12-22T01:18:30.156Z,4.40
2017-12-22T01:20:57.675Z,4.50
2017-12-22T01:23:25.171Z,4.50
2017-12-22T01:25:52.668Z,4.50
2017-12-22T01:28:21.043Z,4.60
2017-12-22T01:30:49.307Z,4.60
2017-12-22T01:33:17.575Z,4.60
2017-12-22T01:35:45.074Z,4.60
2017-12-22T01:38:12.590Z,4.70
2017-12-22T01:40:40.083Z,4.60
2017-12-22T01:43:07.621Z,4.70
2017-12-22T01:45:35.884Z,4.70
2017-12-22T01:48:03.381Z,4.70
2017-12-22T01:50:30.884Z,4.70
2017-12-22T01:52:58.379Z,4.80
2017-12-22T01:55:26.644Z,4.70
2017-12-22T01:57:54.953Z,4.80
2017-12-22T02:00:22.455Z,4.80
2017-12-22T02:02:50.148Z,4.80
2017-12-22T02:05:18.403Z,4.80
2017-12-22T02:07:45.909Z,4.80
2017-12-22T02:10:13.414Z,4.80
2017-12-22T02:12:40.915Z,4.80
2017-12-22T02:15:08.419Z,4.80
2017-12-22T02:17:35.963Z,4.80
2017-12-22T02:20:03.460Z,4.80
2017-12-22T02:22:30.950Z,4.80
2017-12-22T02:24:58.466Z,4.90
2017-12-22T02:27:26.006Z,4.90
2017-12-22T02:29:53.507Z,4.80
2017-12-22T02:32:21.771Z,4.90
2017-12-22T02:34:49.444Z,4.90
2017-12-22T02:37:17.716Z,5.00
2017-12-22T02:39:45.983Z,4.90
2017-12-22T02:42:13.497Z,4.90
2017-12-22T02:44:40.992Z,5.00
2017-12-22T02:47:09.263Z,5.00
2017-12-22T02:49:37.098Z,5.00
2017-12-22T02:52:04.600Z,5.00
2017-12-22T02:54:32.104Z,5.00
2017-12-22T02:56:59.646Z,5.00
2017-12-22T02:59:27.143Z,5.00
2017-12-22T03:01:54.650Z,5.10
2017-12-22T03:04:22.927Z,5.00
2017-12-22T03:06:51.187Z,5.10
2017-12-22T03:09:18.691Z,5.10
2017-12-22T03:11:46.183Z,5.20
2017-12-22T03:14:13.677Z,5.20
2017-12-22T03:16:41.943Z,5.20
2017-12-22T03:19:10.232Z,5.20
2017-12-22T03:21:38.492Z,5.20
2017-12-22T03:24:05.991Z,5.20
2017-12-22T03:26:33.521Z,5.20
2017-12-22T03:29:02.007Z,5.20
2017-12-22T03:31:30.273Z,5.30
2017-12-22T03:33:58.658Z,5.30
2017-12-22T03:36:26.955Z,5.30
2017-12-22T03:38:55.211Z,5.30
2017-12-22T03:41:23.473Z,5.30
2017-12-22T03:43:50.978Z,5.30
2017-12-22T03:46:18.471Z,5.30
2017-12-22T03:48:45.986Z,5.30
2017-12-22T03:51:13.479Z,5.30
2017-12-22T03:53:40.967Z,5.30
2017-12-22T03:56:08.460Z,5.30
2017-12-22T03:58:36.704Z,5.30
2017-12-22T04:01:04.967Z,5.30
2017-12-22T04:03:32.459Z,5.30
2017-12-22T04:05:59.956Z,5.30
2017-12-22T04:08:27.452Z,5.30
2017-12-22T04:10:54.947Z,5.40
2017-12-22T04:13:22.451Z,5.40
2017-12-22T04:15:49.951Z,5.30
2017-12-22T04:18:17.443Z,5.40
2017-12-22T04:20:44.948Z,5.40
2017-12-22T04:23:13.202Z,5.50
2017-12-22T04:25:40.700Z,5.50
2017-12-22T04:28:08.183Z,5.50
2017-12-22T04:30:35.675Z,5.40
2017-12-22T04:33:03.171Z,5.40
2017-12-22T04:35:31.427Z,5.50
2017-12-22T04:37:58.923Z,5.50
2017-12-22T04:40:26.442Z,5.50
2017-12-22T04:42:53.933Z,5.40
2017-12-22T04:45:21.427Z,5.50
2017-12-22T04:47:48.935Z,5.50
2017-12-22T04:50:17.204Z,5.40
2017-12-22T04:52:45.484Z,5.50
2017-12-22T04:55:13.739Z,5.50
2017-12-22T04:57:41.256Z,5.50
2017-12-22T05:00:08.787Z,5.50
2017-12-22T05:02:36.291Z,5.60
2017-12-22T05:05:03.787Z,5.60
2017-12-22T05:07:32.063Z,5.70
2017-12-22T05:10:00.328Z,5.60
2017-12-22T05:12:27.839Z,5.60
2017-12-22T05:14:56.119Z,5.60
2017-12-22T05:17:23.632Z,5.60
2017-12-22T05:19:51.899Z,5.60
2017-12-22T05:22:19.415Z,5.60
2017-12-22T05:24:46.927Z,5.60
2017-12-22T05:27:15.222Z,5.60
2017-12-22T05:29:42.735Z,5.60
2017-12-22T05:32:10.235Z,5.60
2017-12-22T05:34:37.739Z,5.50
2017-12-22T05:37:05.247Z,5.50
2017-12-22T05:39:32.763Z,5.50
2017-12-22T05:42:00.343Z,5.50
2017-12-22T05:44:27.843Z,5.50
2017-12-22T05:46:55.352Z,5.50
2017-12-22T05:49:22.843Z,5.60
2017-12-22T05:51:50.454Z,5.60
2017-12-22T05:54:17.953Z,5.60
2017-12-22T05:56:46.213Z,5.70
2017-12-22T05:59:13.722Z,5.70
2017-12-22T06:01:41.215Z,5.60
2017-12-22T06:04:08.714Z,5.70
2017-12-22T06:06:36.991Z,5.70
2017-12-22T06:09:04.503Z,5.70
2017-12-22T06:24:35.155Z,6.00
2017-12-22T06:27:03.419Z,6.00
2017-12-22T06:29:30.917Z,6.00
2017-12-22T06:31:58.411Z,5.90
2017-12-22T06:34:25.920Z,5.90
2017-12-22T06:36:53.424Z,6.00
2017-12-22T06:39:20.946Z,5.90
2017-12-22T06:41:48.458Z,6.00
2017-12-22T06:44:15.954Z,6.00
2017-12-22T06:46:43.449Z,6.00
2017-12-22T06:49:10.991Z,5.90
2017-12-22T06:51:38.491Z,5.90
2017-12-22T06:54:06.006Z,5.80
2017-12-22T06:56:33.507Z,5.80
2017-12-22T06:59:01.023Z,5.80
2017-12-22T07:01:28.539Z,5.80
2017-12-22T07:03:56.800Z,5.80
2017-12-22T07:06:24.298Z,5.80
2017-12-22T07:08:51.815Z,5.80
2017-12-22T07:11:19.311Z,5.70
2017-12-22T07:13:46.823Z,5.80
2017-12-22T07:16:14.339Z,5.80
2017-12-22T07:18:41.839Z,5.80
2017-12-22T07:21:09.332Z,5.80
2017-12-22T07:23:37.599Z,5.80
2017-12-22T07:26:05.892Z,5.70
2017-12-22T07:28:34.159Z,5.70
2017-12-22T07:31:02.643Z,5.80
2017-12-22T07:33:30.919Z,5.80
2017-12-22T07:35:59.191Z,5.80
2017-12-22T07:38:27.455Z,5.80
2017-12-22T07:40:54.957Z,5.80
2017-12-22T07:43:22.592Z,5.90
2017-12-22T07:45:50.892Z,5.90
2017-12-22T07:48:18.533Z,5.90
2017-12-22T07:50:46.625Z,5.80
2017-12-22T07:53:14.122Z,5.90
2017-12-22T07:55:41.735Z,6.00
2017-12-22T07:58:09.338Z,6.00
2017-12-22T08:00:36.831Z,6.00
2017-12-22T08:03:05.116Z,6.10
2017-12-22T08:05:33.375Z,6.10
2017-12-22T08:08:00.877Z,6.10
2017-12-22T08:10:28.379Z,6.10
2017-12-22T08:12:55.983Z,6.10
2017-12-22T08:15:23.495Z,6.10
2017-12-22T08:17:51.010Z,6.20
2017-12-22T08:20:18.715Z,6.20
2017-12-22T08:22:46.227Z,6.20
2017-12-22T08:25:13.744Z,6.30
2017-12-22T08:27:41.239Z,6.40
2017-12-22T08:30:08.752Z,6.30
2017-12-22T08:32:36.269Z,6.40
2017-12-22T08:35:03.868Z,6.40
2017-12-22T08:37:31.364Z,6.50
2017-12-22T08:39:59.627Z,6.60
2017-12-22T08:42:27.892Z,6.60
2017-12-22T08:44:55.478Z,6.60
2017-12-22T08:47:23.750Z,6.60
2017-12-22T08:49:52.079Z,6.60
2017-12-22T08:52:19.580Z,6.60
2017-12-22T08:54:47.839Z,6.60
2017-12-22T08:57:15.335Z,6.60
2017-12-22T08:59:42.835Z,6.60
2017-12-22T09:02:10.336Z,6.60
2017-12-22T09:04:38.601Z,6.70
2017-12-22T09:07:06.091Z,6.70
2017-12-22T09:09:33.599Z,6.70
2017-12-22T09:12:01.109Z,6.80
2017-12-22T09:14:28.656Z,6.80
2017-12-22T09:16:56.151Z,6.80
2017-12-22T09:19:23.867Z,7.00
2017-12-22T09:21:52.350Z,7.10
2017-12-22T09:24:20.611Z,7.10
2017-12-22T09:26:48.104Z,7.10
2017-12-22T09:29:15.611Z,7.20
2017-12-22T09:31:43.112Z,7.20
2017-12-22T09:34:10.617Z,7.20
2017-12-22T09:36:38.109Z,7.20
2017-12-22T09:39:06.378Z,7.30
2017-12-22T09:41:33.871Z,7.20
2017-12-22T09:44:01.372Z,7.20
2017-12-22T09:46:28.876Z,7.20
2017-12-22T09:48:57.263Z,7.40
2017-12-22T09:51:24.655Z,7.30
2017-12-22T09:53:52.167Z,7.30
2017-12-22T09:56:20.441Z,7.40
2017-12-22T09:58:48.700Z,7.40
2017-12-22T10:01:16.207Z,7.40
2017-12-22T10:03:43.724Z,7.40
2017-12-22T10:06:11.987Z,7.40
2017-12-22T10:08:39.499Z,7.40
2017-12-22T10:11:07.011Z,7.30
2017-12-22T10:13:35.283Z,7.40
2017-12-22T10:16:03.559Z,7.40
2017-12-22T10:18:32.991Z,7.40
2017-12-22T10:21:00.504Z,7.40
2017-12-22T10:23:28.004Z,7.40
2017-12-22T10:25:56.272Z,7.50
2017-12-22T10:28:24.530Z,7.50
2017-12-22T10:30:52.031Z,7.50
2017-12-22T10:33:19.535Z,7.50
2017-12-22T10:35:47.043Z,7.50
2017-12-22T10:38:14.551Z,7.50
2017-12-22T10:40:42.043Z,7.40
2017-12-22T10:43:11.194Z,7.50
2017-12-22T10:45:38.895Z,7.50
2017-12-22T10:48:07.167Z,7.60
2017-12-22T10:50:35.438Z,7.70
2017-12-22T10:53:02.934Z,7.60
2017-12-22T10:55:30.448Z,7.60
2017-12-22T10:57:57.963Z,7.60
2017-12-22T11:00:28.130Z,7.70
2017-12-22T11:02:55.625Z,7.70
2017-12-22T11:05:23.239Z,7.70
2017-12-22T11:07:52.250Z,7.70
2017-12-22T11:10:20.530Z,7.70
2017-12-22T11:12:48.811Z,7.70
2017-12-22T11:15:17.133Z,7.70
2017-12-22T11:17:44.600Z,7.70
2017-12-22T11:20:12.107Z,7.80
2017-12-22T11:22:40.371Z,7.60
2017-12-22T11:25:08.643Z,7.70
2017-12-22T11:27:36.160Z,7.70
2017-12-22T11:30:03.700Z,7.70
2017-12-22T11:32:31.208Z,7.70
2017-12-22T11:34:58.719Z,7.70
2017-12-22T11:37:26.267Z,7.80
2017-12-22T11:39:53.772Z,7.70
2017-12-22T11:42:21.263Z,7.80
2017-12-22T11:44:49.544Z,7.70
2017-12-22T11:47:18.247Z,7.80
2017-12-22T11:49:45.745Z,7.80
2017-12-22T11:52:13.239Z,7.80
2017-12-22T11:54:41.511Z,7.70
2017-12-22T11:57:09.779Z,7.70
2017-12-22T11:59:37.291Z,7.70
2017-12-22T12:02:04.788Z,7.80
2017-12-22T12:04:32.288Z,7.70
2017-12-22T12:06:59.780Z,7.70
2017-12-22T12:09:27.317Z,7.70
2017-12-22T12:11:54.835Z,7.60
2017-12-22T12:14:22.335Z,7.60
2017-12-22T12:16:49.844Z,7.60
2017-12-22T12:19:17.358Z,7.60
2017-12-22T12:21:44.896Z,7.70
2017-12-22T12:24:12.400Z,7.60
2017-12-22T12:26:39.921Z,7.60
2017-12-22T12:29:07.419Z,7.50
2017-12-22T12:31:35.125Z,7.60
2017-12-22T12:34:03.605Z,7.50
2017-12-22T12:36:31.867Z,7.50
2017-12-22T12:39:00.147Z,7.50
2017-12-22T12:41:28.414Z,7.50
2017-12-22T12:43:55.911Z,7.50
2017-12-22T12:46:23.465Z,7.50
2017-12-22T12:48:50.976Z,7.40
2017-12-22T12:51:18.475Z,7.40
2017-12-22T12:53:45.971Z,7.40
2017-12-22T12:56:13.470Z,7.40
2017-12-22T12:58:41.751Z,7.40
2017-12-22T13:01:10.023Z,7.50
2017-12-22T13:03:38.285Z,7.50
2017-12-22T13:06:05.794Z,7.50
2017-12-22T13:08:33.291Z,7.50
2017-12-22T13:11:00.790Z,7.50
2017-12-22T13:13:29.067Z,7.60
2017-12-22T13:15:57.331Z,7.50
2017-12-22T13:18:25.592Z,7.60
2017-12-22T13:20:53.097Z,7.60
2017-12-22T13:23:20.607Z,7.60
2017-12-22T13:25:48.119Z,7.70
2017-12-22T13:28:15.611Z,7.60
2017-12-22T13:30:43.130Z,7.70
2017-12-22T13:33:10.658Z,7.80
2017-12-22T13:35:38.923Z,7.70
2017-12-22T13:38:06.419Z,7.60
2017-12-22T13:40:33.923Z,7.60
2017-12-22T13:43:01.451Z,7.60
2017-12-22T13:45:28.943Z,7.60
2017-12-22T13:47:56.443Z,7.60
2017-12-22T13:50:23.947Z,7.60
2017-12-22T13:52:51.448Z,7.60
2017-12-22T13:55:19.723Z,7.70
2017-12-22T13:57:48.003Z,7.80
2017-12-22T14:00:16.484Z,7.80
2017-12-22T14:02:44.767Z,7.80
2017-12-22T14:05:12.419Z,7.80
2017-12-22T14:07:40.683Z,7.70
2017-12-22T14:10:08.187Z,7.70
2017-12-22T14:12:35.699Z,7.60
2017-12-22T14:15:03.241Z,7.60
2017-12-22T14:17:30.860Z,7.60
2017-12-22T14:19:58.355Z,7.50
2017-12-22T14:22:25.851Z,7.40
2017-12-22T14:24:54.299Z,7.30
2017-12-22T14:27:21.991Z,7.30
2017-12-22T14:29:50.294Z,7.30
2017-12-22T14:32:17.815Z,7.30
2017-12-22T14:34:45.314Z,7.30
2017-12-22T14:37:12.811Z,7.30
2017-12-22T14:39:40.312Z,7.20
2017-12-22T14:42:08.588Z,7.30
2017-12-22T14:44:36.117Z,7.30
2017-12-22T14:47:03.607Z,7.40
2017-12-22T14:49:31.108Z,7.30
2017-12-22T14:51:58.603Z,7.30
2017-12-22T14:54:26.978Z,7.30
2017-12-22T14:56:55.365Z,7.20
2017-12-22T14:59:23.763Z,7.10
2017-12-22T15:01:51.405Z,7.10
2017-12-22T15:04:19.083Z,7.20
2017-12-22T15:06:46.685Z,7.10
2017-12-22T15:09:14.316Z,7.10
2017-12-22T15:11:41.902Z,7.10
2017-12-22T15:14:09.714Z,7.10
2017-12-22T15:16:37.728Z,7.10
2017-12-22T15:19:05.334Z,7.10
2017-12-22T15:21:33.837Z,7.00
2017-12-22T15:24:01.521Z,7.00
2017-12-22T15:26:29.109Z,7.00
2017-12-22T15:28:58.297Z,7.00
2017-12-22T15:31:25.896Z,7.00
2017-12-22T15:33:54.316Z,7.00
2017-12-22T15:36:21.924Z,7.00
2017-12-22T15:38:49.802Z,7.00
2017-12-22T15:41:18.179Z,7.10
2017-12-22T15:43:46.568Z,7.00
2017-12-22T15:46:14.180Z,7.00
2017-12-22T15:48:41.782Z,7.10
2017-12-22T15:51:10.248Z,7.00
2017-12-22T15:53:37.987Z,7.00
2017-12-22T15:56:05.602Z,7.00
2017-12-22T15:58:33.197Z,7.00
2017-12-22T16:01:00.857Z,7.00
2017-12-22T16:03:28.472Z,7.10
2017-12-22T16:05:56.946Z,7.00
2017-12-22T16:08:25.333Z,6.90
2017-12-22T16:10:53.706Z,6.90
2017-12-22T16:13:21.329Z,6.90
2017-12-22T16:15:48.948Z,6.80
2017-12-22T16:18:16.778Z,6.70
2017-12-22T16:20:44.384Z,6.80
2017-12-22T16:23:12.067Z,6.80
2017-12-22T16:25:39.700Z,6.80
2017-12-22T16:28:07.246Z,6.70
2017-12-22T16:30:35.649Z,6.70
2017-12-22T16:33:03.284Z,6.60
2017-12-22T16:35:31.962Z,6.70
2017-12-22T16:38:00.367Z,6.70
2017-12-22T16:40:27.975Z,6.60
2017-12-22T16:42:55.602Z,6.70
2017-12-22T16:45:23.231Z,6.70
2017-12-22T16:47:51.757Z,6.70
2017-12-22T16:50:19.436Z,6.70
2017-12-22T16:52:47.242Z,6.70
2017-12-22T16:55:15.628Z,6.70
2017-12-22T16:57:43.938Z,6.60
2017-12-22T17:00:11.584Z,6.60
2017-12-22T17:02:39.940Z,6.60
2017-12-22T17:05:08.301Z,6.70
2017-12-22T17:07:35.932Z,6.60
2017-12-22T17:10:03.583Z,6.70
2017-12-22T17:12:31.324Z,6.60
2017-12-22T17:14:58.999Z,6.70
2017-12-22T17:17:26.671Z,6.70
2017-12-22T17:19:54.243Z,6.60
2017-12-22T17:22:21.843Z,6.60
2017-12-22T17:24:50.524Z,6.60
2017-12-22T17:27:18.970Z,6.70
2017-12-22T17:29:46.926Z,6.70
2017-12-22T17:32:14.524Z,6.70
2017-12-22T17:34:42.262Z,6.70
2017-12-22T17:37:09.942Z,6.70
2017-12-22T17:39:38.491Z,6.70
2017-12-22T17:42:06.118Z,6.70
2017-12-22T17:44:34.519Z,6.70
2017-12-22T17:47:02.258Z,6.60
2017-12-22T17:49:30.685Z,6.70
2017-12-22T17:51:58.299Z,6.70
2017-12-22T17:54:26.751Z,6.70
2017-12-22T17:56:54.396Z,6.70
2017-12-22T17:59:22.004Z,6.80
2017-12-22T18:01:50.333Z,6.70
2017-12-22T18:04:18.035Z,6.70
2017-12-22T18:06:46.471Z,6.70
2017-12-22T18:09:14.248Z,6.70
2017-12-22T18:11:41.940Z,6.70
2017-12-22T18:14:10.334Z,6.60
2017-12-22T18:16:38.724Z,6.60
2017-12-22T18:19:06.350Z,6.60
2017-12-22T18:21:34.013Z,6.60
2017-12-22T18:24:01.736Z,6.60
2017-12-22T18:26:34.779Z,6.60
2017-12-22T18:29:03.989Z,6.60
2017-12-22T18:31:32.377Z,6.60
2017-12-22T18:34:00.005Z,6.60
2017-12-22T18:36:27.642Z,6.70
2017-12-22T18:38:55.250Z,6.60
2017-12-22T18:41:23.659Z,6.70
2017-12-22T18:43:51.328Z,6.60
2017-12-22T18:46:18.958Z,6.70
2017-12-22T18:48:46.588Z,6.70
2017-12-22T18:51:14.221Z,6.70
2017-12-22T18:53:41.844Z,6.60
2017-12-22T18:56:09.446Z,6.70
2017-12-22T18:58:37.093Z,6.70
2017-12-22T19:01:05.134Z,6.70
2017-12-22T19:03:33.552Z,6.80
2017-12-22T19:06:01.156Z,6.80
2017-12-22T19:08:29.579Z,6.80
2017-12-22T19:10:57.552Z,6.80
2017-12-22T19:13:25.215Z,6.90
2017-12-22T19:15:52.855Z,6.80
2017-12-22T19:18:20.568Z,6.80
2017-12-22T19:20:49.006Z,6.90
2017-12-22T19:23:16.568Z,6.90
2017-12-22T19:25:44.180Z,6.90
2017-12-22T19:28:11.842Z,6.90
2017-12-22T19:30:39.576Z,7.00
2017-12-22T19:33:07.308Z,7.00
2017-12-22T19:35:35.001Z,7.00
2017-12-22T19:38:02.643Z,7.00
2017-12-22T19:40:31.089Z,7.00
2017-12-22T19:42:58.862Z,7.00
2017-12-22T19:45:26.814Z,7.00
2017-12-22T19:47:54.441Z,7.10
2017-12-22T19:50:22.086Z,7.10
2017-12-22T19:52:49.822Z,7.20
2017-12-22T19:55:17.439Z,7.10
2017-12-22T19:57:45.021Z,7.10
2017-12-22T20:00:12.689Z,7.10
2017-12-22T20:02:41.221Z,7.10
2017-12-22T20:05:09.670Z,7.10
2017-12-22T20:07:37.468Z,7.10
2017-12-22T20:10:05.286Z,7.10
2017-12-22T20:12:34.249Z,7.10
2017-12-22T20:15:01.882Z,7.10
2017-12-22T20:17:29.724Z,7.10
2017-12-22T20:19:57.371Z,7.10
2017-12-22T20:22:26.124Z,7.20
2017-12-22T20:24:53.739Z,7.20
2017-12-22T20:27:21.372Z,7.20
2017-12-22T20:29:48.887Z,7.30
2017-12-22T20:32:16.391Z,7.20
2017-12-22T20:34:43.887Z,7.30
2017-12-22T20:37:11.386Z,7.30
2017-12-22T20:39:38.895Z,7.20
2017-12-22T20:42:07.368Z,7.20
2017-12-22T20:44:35.631Z,7.10
2017-12-22T20:47:03.124Z,7.10
2017-12-22T20:49:30.647Z,7.20
2017-12-22T20:51:58.167Z,7.20
2017-12-22T20:54:25.663Z,7.20
2017-12-22T20:56:53.156Z,7.20
2017-12-22T20:59:20.665Z,7.20
2017-12-22T21:01:48.186Z,7.20
2017-12-22T21:04:15.692Z,7.20
2017-12-22T21:06:43.247Z,7.30
2017-12-22T21:09:11.520Z,7.40
2017-12-22T21:11:39.034Z,7.30
2017-12-22T21:14:06.551Z,7.30
2017-12-22T21:16:34.616Z,7.20
2017-12-22T21:19:02.883Z,7.10
2017-12-22T21:21:30.406Z,7.10
2017-12-22T21:23:57.907Z,7.10
2017-12-22T21:26:25.407Z,7.10
2017-12-22T21:28:53.156Z,7.00
2017-12-22T21:31:21.431Z,7.00
2017-12-22T21:33:48.978Z,7.00
2017-12-22T21:36:17.287Z,7.00
2017-12-22T21:38:44.782Z,7.00
2017-12-22T21:41:12.323Z,7.00
2017-12-22T21:43:39.816Z,7.00
2017-12-22T21:46:07.313Z,7.00
2017-12-22T21:48:34.810Z,7.00
2017-12-22T21:51:02.315Z,7.00
2017-12-22T21:53:30.579Z,6.90
2017-12-22T21:55:58.076Z,6.90
2017-12-22T21:58:25.575Z,6.90
2017-12-22T22:00:53.068Z,6.90
2017-12-22T22:03:21.377Z,6.90
2017-12-22T22:05:48.875Z,6.80
2017-12-22T22:08:16.385Z,6.80
2017-12-22T22:10:43.884Z,6.80
2017-12-22T22:13:11.396Z,6.80
2017-12-22T22:15:38.902Z,6.70
2017-12-22T22:18:06.407Z,6.80
2017-12-22T22:20:33.910Z,6.90
2017-12-22T22:23:01.408Z,7.00
2017-12-22T22:25:29.671Z,7.10
2017-12-22T22:27:58.096Z,7.10
2017-12-22T22:30:25.613Z,7.10
2017-12-22T22:32:53.895Z,7.10
2017-12-22T22:35:22.155Z,7.00
2017-12-22T22:37:49.647Z,7.00
2017-12-22T22:40:17.165Z,7.00
2017-12-22T22:42:46.159Z,7.00
2017-12-22T22:45:13.655Z,7.00
2017-12-22T22:47:41.188Z,7.00
2017-12-22T22:50:08.695Z,7.00
2017-12-22T22:52:36.196Z,7.00
2017-12-22T22:55:03.708Z,7.00
2017-12-22T22:57:31.207Z,7.00
2017-12-22T22:59:58.721Z,7.10
2017-12-22T23:02:26.207Z,7.00
2017-12-22T23:04:53.699Z,6.70
2017-12-22T23:07:21.235Z,6.70
2017-12-22T23:09:48.744Z,6.70
2017-12-22T23:12:16.244Z,6.60
2017-12-22T23:14:43.744Z,6.70
2017-12-22T23:17:12.009Z,6.70
2017-12-22T23:19:39.521Z,6.70
2017-12-22T23:22:07.017Z,6.70
2017-12-22T23:24:34.507Z,6.80
2017-12-22T23:27:02.007Z,7.00
2017-12-22T23:29:29.499Z,7.00
2017-12-22T23:31:56.996Z,7.10
2017-12-22T23:34:24.495Z,7.10
2017-12-22T23:36:51.990Z,7.20
2017-12-22T23:39:20.246Z,7.00
2017-12-22T23:41:47.743Z,7.00
2017-12-22T23:44:15.235Z,6.90
2017-12-22T23:46:42.780Z,6.90
2017-12-22T23:49:10.279Z,6.80
2017-12-22T23:51:37.787Z,6.80
2017-12-22T23:54:05.279Z,6.80
2017-12-22T23:56:32.784Z,6.70
2017-12-22T23:59:00.325Z,6.70
